createdAt,value
2022-08-21T00:00:50.245Z,84.25
2022-08-21T00:03:18.915Z,83.94
2022-08-21T00:05:51.530Z,83.83
2022-08-21T00:08:20.905Z,84.18
2022-08-21T00:10:53.651Z,84.07
2022-08-21T00:13:22.777Z,84.56
2022-08-21T00:15:54.045Z,84.63
2022-08-21T00:18:26.782Z,84.55
2022-08-21T00:20:58.309Z,84.83
2022-08-21T00:23:29.148Z,85.03
2022-08-21T00:25:58.888Z,84.93
2022-08-21T00:28:36.277Z,84.99
2022-08-21T00:31:05.371Z,84.96
2022-08-21T00:33:34.409Z,85.03
2022-08-21T00:36:03.484Z,85.56
2022-08-21T00:38:32.755Z,85.83
2022-08-21T00:41:13.450Z,85.55
2022-08-21T00:43:53.344Z,85.58
2022-08-21T00:46:27.444Z,85.56
2022-08-21T00:48:58.950Z,85.38
2022-08-21T00:51:33.085Z,85.23
2022-08-21T00:54:12.952Z,85.33
2022-08-21T00:56:50.874Z,85.50
2022-08-21T00:59:22.616Z,85.45
2022-08-21T01:01:53.215Z,85.02
2022-08-21T01:04:24.771Z,85.28
2022-08-21T01:06:53.567Z,85.42
2022-08-21T01:09:22.443Z,85.70
2022-08-21T01:11:59.710Z,85.51
2022-08-21T01:14:29.587Z,85.62
2022-08-21T01:16:58.927Z,85.60
2022-08-21T01:19:29.927Z,85.76
2022-08-21T01:22:00.834Z,85.96
2022-08-21T01:24:29.975Z,85.98
2022-08-21T01:27:02.504Z,86.19
2022-08-21T01:29:35.621Z,86.33
2022-08-21T01:32:08.913Z,86.21
2022-08-21T01:34:41.525Z,86.35
2022-08-21T01:37:13.803Z,86.03
2022-08-21T01:39:43.163Z,86.14
2022-08-21T01:42:16.320Z,86.51
2022-08-21T01:44:44.712Z,86.29
2022-08-21T01:47:20.918Z,86.65
2022-08-21T01:49:49.341Z,86.51
2022-08-21T01:52:20.392Z,86.23
2022-08-21T01:54:55.482Z,86.05
2022-08-21T01:57:26.006Z,86.06
2022-08-21T01:59:56.655Z,86.16
2022-08-21T02:02:25.291Z,86.32
2022-08-21T02:04:53.777Z,86.43
2022-08-21T02:07:25.715Z,86.38
2022-08-21T02:09:54.018Z,86.41
2022-08-21T02:12:26.898Z,86.59
2022-08-21T02:14:57.962Z,86.29
2022-08-21T02:17:26.307Z,86.21
2022-08-21T02:19:54.625Z,86.27
2022-08-21T02:22:24.370Z,86.51
2022-08-21T02:24:54.457Z,86.71
2022-08-21T02:27:26.679Z,86.57
2022-08-21T02:29:58.789Z,86.48
2022-08-21T02:32:27.840Z,86.64
2022-08-21T02:34:56.482Z,86.85
2022-08-21T02:37:26.933Z,86.68
2022-08-21T02:39:55.420Z,86.62
2022-08-21T02:42:23.977Z,86.74
2022-08-21T02:44:52.330Z,86.71
2022-08-21T02:47:21.198Z,86.91
2022-08-21T02:49:54.001Z,86.96
2022-08-21T02:52:22.890Z,87.00
2022-08-21T02:54:53.353Z,87.17
2022-08-21T02:57:22.775Z,87.07
2022-08-21T02:59:51.088Z,87.11
2022-08-21T03:02:22.526Z,87.25
2022-08-21T03:04:52.300Z,87.12
2022-08-21T03:07:20.663Z,87.45
2022-08-21T03:09:55.721Z,87.23
2022-08-21T03:12:27.889Z,87.58
2022-08-21T03:14:59.175Z,87.54
2022-08-21T03:17:30.798Z,87.47
2022-08-21T03:20:03.991Z,87.46
2022-08-21T03:22:33.130Z,87.86
2022-08-21T03:25:02.144Z,87.80
2022-08-21T03:27:37.509Z,88.11
2022-08-21T03:30:10.696Z,88.10
2022-08-21T03:32:39.305Z,88.17
2022-08-21T03:35:08.263Z,87.89
2022-08-21T03:37:36.823Z,87.93
2022-08-21T03:40:07.145Z,87.74
2022-08-21T03:42:40.354Z,87.80
2022-08-21T03:45:10.350Z,87.62
2022-08-21T03:47:41.448Z,87.70
2022-08-21T03:50:12.395Z,87.86
2022-08-21T03:52:40.747Z,87.86
2022-08-21T03:55:09.291Z,88.00
2022-08-21T03:57:38.927Z,87.99
2022-08-21T04:00:13.727Z,87.86
2022-08-21T04:02:43.157Z,88.06
2022-08-21T04:05:13.243Z,87.90
2022-08-21T04:07:42.058Z,88.23
2022-08-21T04:10:10.969Z,88.10
2022-08-21T04:12:40.617Z,87.85
2022-08-21T04:15:10.884Z,87.96
2022-08-21T04:17:42.015Z,87.77
2022-08-21T04:20:19.515Z,88.05
2022-08-21T04:22:51.629Z,88.08
2022-08-21T04:25:21.796Z,88.47
2022-08-21T04:27:52.203Z,88.33
2022-08-21T04:30:21.552Z,88.63
2022-08-21T04:32:58.911Z,88.77
2022-08-21T04:35:32.644Z,88.94
2022-08-21T04:38:01.032Z,88.77
2022-08-21T04:40:30.088Z,88.86
2022-08-21T04:43:03.059Z,88.71
2022-08-21T04:45:36.196Z,88.80
2022-08-21T04:48:11.987Z,88.89
2022-08-21T04:50:45.280Z,88.80
2022-08-21T04:53:18.021Z,88.93
2022-08-21T04:55:56.949Z,88.76
2022-08-21T04:58:28.410Z,88.84
2022-08-21T05:00:59.968Z,88.76
2022-08-21T05:03:29.777Z,88.65
2022-08-21T05:05:58.847Z,88.56
2022-08-21T05:08:28.855Z,88.52
2022-08-21T05:11:00.494Z,88.51
2022-08-21T05:13:33.386Z,88.54
2022-08-21T05:16:01.914Z,88.22
2022-08-21T05:18:30.454Z,88.49
2022-08-21T05:20:58.711Z,88.36
2022-08-21T05:23:26.986Z,88.35
2022-08-21T05:25:56.150Z,88.27
2022-08-21T05:28:24.563Z,88.52
2022-08-21T05:30:56.601Z,88.25
2022-08-21T05:33:25.042Z,87.93
2022-08-21T05:35:56.995Z,87.91
2022-08-21T05:38:26.032Z,87.63
2022-08-21T05:40:54.976Z,87.66
2022-08-21T05:43:27.026Z,87.57
2022-08-21T05:46:00.110Z,87.43
2022-08-21T05:48:28.390Z,87.44
2022-08-21T05:50:58.783Z,87.39
2022-08-21T05:53:30.214Z,87.35
2022-08-21T05:55:58.582Z,87.15
2022-08-21T05:58:26.983Z,86.92
2022-08-21T06:00:56.734Z,86.83
2022-08-21T06:03:30.078Z,86.64
2022-08-21T06:05:59.508Z,86.54
2022-08-21T06:08:29.926Z,86.44
2022-08-21T06:11:01.077Z,86.09
2022-08-21T06:13:30.339Z,86.09
2022-08-21T06:16:09.626Z,86.13
2022-08-21T06:18:38.730Z,86.01
2022-08-21T06:21:08.087Z,85.69
2022-08-21T06:23:38.020Z,86.02
2022-08-21T06:26:10.768Z,85.66
2022-08-21T06:28:41.626Z,85.31
2022-08-21T06:31:21.112Z,85.23
2022-08-21T06:33:50.038Z,85.42
2022-08-21T06:36:18.766Z,85.18
2022-08-21T06:38:51.151Z,85.07
2022-08-21T06:41:22.527Z,85.41
2022-08-21T06:43:55.457Z,84.97
2022-08-21T06:46:25.532Z,85.18
2022-08-21T06:48:54.341Z,85.03
2022-08-21T06:51:22.781Z,85.18
2022-08-21T06:53:53.306Z,84.61
2022-08-21T06:56:21.895Z,84.41
2022-08-21T06:58:51.322Z,84.30
2022-08-21T07:01:20.031Z,84.02
2022-08-21T07:03:56.699Z,84.02
2022-08-21T07:06:31.508Z,83.56
2022-08-21T07:09:05.910Z,84.07
2022-08-21T07:11:38.477Z,83.80
2022-08-21T07:14:12.563Z,83.27
2022-08-21T07:16:52.491Z,83.32
2022-08-21T07:19:22.658Z,83.36
2022-08-21T07:21:50.938Z,83.14
2022-08-21T07:24:19.456Z,82.17
2022-08-21T07:26:47.840Z,82.32
2022-08-21T07:29:18.140Z,81.55
2022-08-21T07:31:51.327Z,81.89
2022-08-21T07:34:24.794Z,81.08
2022-08-21T07:36:55.877Z,80.16
2022-08-21T07:39:26.612Z,80.56
2022-08-21T07:41:54.974Z,80.24
2022-08-21T07:44:23.251Z,79.28
2022-08-21T07:46:51.891Z,79.91
2022-08-21T07:49:22.366Z,79.82
2022-08-21T07:51:52.913Z,79.02
2022-08-21T07:54:25.440Z,78.97
2022-08-21T07:57:05.180Z,79.17
2022-08-21T07:59:33.588Z,80.03
2022-08-21T08:02:04.984Z,78.95
2022-08-21T08:04:33.354Z,79.53
2022-08-21T08:07:04.402Z,78.53
2022-08-21T08:09:33.195Z,79.61
2022-08-21T08:12:01.550Z,79.09
2022-08-21T08:14:31.635Z,78.79
2022-08-21T08:17:06.030Z,78.37
2022-08-21T08:19:34.390Z,78.95
2022-08-21T08:22:15.323Z,77.88
2022-08-21T08:24:43.713Z,78.83
2022-08-21T08:27:15.321Z,78.45
2022-08-21T08:29:43.731Z,76.57
2022-08-21T08:32:17.087Z,77.04
2022-08-21T08:34:51.082Z,75.83
2022-08-21T08:37:22.010Z,75.83
2022-08-21T08:39:55.508Z,75.68
2022-08-21T08:42:32.805Z,76.04
2022-08-21T08:45:08.699Z,75.69
2022-08-21T08:47:47.607Z,74.92
2022-08-21T08:50:27.152Z,75.38
2022-08-21T08:53:01.624Z,75.33
2022-08-21T08:55:37.132Z,75.25
2022-08-21T08:58:09.434Z,73.86
2022-08-21T09:00:38.095Z,72.99
2022-08-21T09:03:09.465Z,73.71
2022-08-21T09:05:45.074Z,73.74
2022-08-21T09:08:52.173Z,72.84
2022-08-21T09:11:29.546Z,72.25
2022-08-21T09:14:07.435Z,72.46
2022-08-21T09:16:48.096Z,72.52
2022-08-21T09:19:34.724Z,72.58
2022-08-21T09:22:11.173Z,72.32
2022-08-21T09:24:52.155Z,71.84
2022-08-21T09:27:23.195Z,72.16
2022-08-21T09:29:58.655Z,72.78
2022-08-21T09:32:37.068Z,73.74
2022-08-21T09:35:10.556Z,74.64
2022-08-21T09:37:50.947Z,73.56
2022-08-21T09:40:37.961Z,74.16
2022-08-21T09:43:18.129Z,74.60
2022-08-21T09:45:47.627Z,74.93
2022-08-21T09:48:21.533Z,75.44
2022-08-21T09:50:51.477Z,73.02
2022-08-21T09:53:24.417Z,72.26
2022-08-21T09:56:13.875Z,71.97
2022-08-21T09:58:45.712Z,70.68
2022-08-21T10:01:17.580Z,72.06
2022-08-21T10:03:46.589Z,70.27
2022-08-21T10:06:26.098Z,72.31
2022-08-21T10:09:07.827Z,70.75
2022-08-21T10:11:38.655Z,71.34
2022-08-21T10:14:15.918Z,71.01
2022-08-21T10:16:55.583Z,71.35
2022-08-21T10:19:35.702Z,71.32
2022-08-21T10:22:12.789Z,69.96
2022-08-21T10:24:48.979Z,70.93
2022-08-21T10:27:33.060Z,70.22
2022-08-21T10:30:06.275Z,69.74
2022-08-21T10:33:06.912Z,68.11
2022-08-21T10:35:39.844Z,70.00
2022-08-21T10:38:52.764Z,69.96
2022-08-21T10:41:39.359Z,68.36
2022-08-21T10:44:32.455Z,69.18
2022-08-21T10:47:11.791Z,70.18
2022-08-21T10:49:47.188Z,70.91
2022-08-21T10:53:01.680Z,69.53
2022-08-21T10:55:37.516Z,69.46
2022-08-21T10:58:14.742Z,68.70
2022-08-21T11:00:49.394Z,68.33
2022-08-21T11:03:22.454Z,68.58
2022-08-21T11:06:00.055Z,69.00
2022-08-21T11:08:34.067Z,67.25
2022-08-21T11:11:08.832Z,67.72
2022-08-21T11:13:45.247Z,68.38
2022-08-21T11:16:26.175Z,69.20
2022-08-21T11:19:02.609Z,67.23
2022-08-21T11:21:38.371Z,67.10
2022-08-21T11:24:21.871Z,63.94
2022-08-21T11:26:57.146Z,63.96
2022-08-21T11:29:31.008Z,65.53
2022-08-21T11:32:27.926Z,65.56
2022-08-21T11:35:05.199Z,83.13
2022-08-21T11:37:51.920Z,89.71
2022-08-21T11:40:42.974Z,96.15
2022-08-21T11:43:17.948Z,95.65
2022-08-21T11:45:50.937Z,96.64
2022-08-21T11:48:35.722Z,94.52
2022-08-21T11:51:09.169Z,96.44
2022-08-21T11:53:42.518Z,98.22
2022-08-21T11:56:17.307Z,94.69
2022-08-21T11:58:51.230Z,92.98
2022-08-21T12:01:26.765Z,96.61
2022-08-21T12:03:59.318Z,103.28
2022-08-21T12:06:34.117Z,100.13
2022-08-21T12:09:06.345Z,95.85
2022-08-21T12:11:48.183Z,95.36
2022-08-21T12:14:20.994Z,94.62
2022-08-21T12:16:51.401Z,97.53
2022-08-21T12:19:33.319Z,97.34
2022-08-21T12:22:11.454Z,100.83
2022-08-21T12:24:42.776Z,99.94
2022-08-21T12:27:26.656Z,103.70
2022-08-21T12:30:00.733Z,104.17
2022-08-21T12:32:32.099Z,101.83
2022-08-21T12:35:25.167Z,105.45
2022-08-21T12:38:03.917Z,105.84
2022-08-21T12:40:42.494Z,98.15
2022-08-21T12:43:18.888Z,98.14
2022-08-21T12:45:50.034Z,100.73
2022-08-21T12:48:25.044Z,101.33
2022-08-21T12:50:59.275Z,101.63
2022-08-21T12:53:32.570Z,98.35
2022-08-21T12:56:04.844Z,95.61
2022-08-21T12:58:33.709Z,90.28
2022-08-21T13:01:05.717Z,97.68
2022-08-21T13:03:38.513Z,99.48
2022-08-21T13:06:16.111Z,103.72
2022-08-21T13:08:47.461Z,101.41
2022-08-21T13:11:32.742Z,103.18
2022-08-21T13:14:05.270Z,102.72
2022-08-21T13:16:39.213Z,101.85
2022-08-21T13:19:13.714Z,99.19
2022-08-21T13:21:48.156Z,101.94
2022-08-21T13:27:27.094Z,98.71
2022-08-21T13:30:09.466Z,99.78
2022-08-21T13:32:42.348Z,102.44
2022-08-21T13:35:16.744Z,99.73
2022-08-21T13:37:50.897Z,102.28
2022-08-21T13:40:22.733Z,101.16
2022-08-21T13:42:51.820Z,98.10
2022-08-21T13:45:27.188Z,98.88
2022-08-21T13:48:00.123Z,94.43
2022-08-21T13:50:31.736Z,91.79
2022-08-21T13:53:05.010Z,94.67
2022-08-21T13:55:38.656Z,99.45
2022-08-21T13:58:08.463Z,92.44
2022-08-21T14:00:45.653Z,96.29
2022-08-21T14:03:29.352Z,98.10
2022-08-21T14:06:01.730Z,95.97
2022-08-21T14:08:35.400Z,98.71
2022-08-21T14:11:07.033Z,97.04
2022-08-21T14:13:40.355Z,97.90
2022-08-21T14:16:17.942Z,93.53
2022-08-21T14:18:54.957Z,89.32
2022-08-21T14:21:32.093Z,89.42
2022-08-21T14:24:14.640Z,87.63
2022-08-21T14:26:51.717Z,91.76
2022-08-21T14:29:27.028Z,90.69
2022-08-21T14:32:21.407Z,94.85
2022-08-21T14:34:54.822Z,102.59
2022-08-21T14:37:28.249Z,102.53
2022-08-21T14:39:58.195Z,101.39
2022-08-21T14:42:33.223Z,96.89
2022-08-21T14:45:07.920Z,97.51
2022-08-21T14:47:37.831Z,94.81
2022-08-21T14:50:06.663Z,101.71
2022-08-21T14:52:37.784Z,100.05
2022-08-21T14:55:11.750Z,100.32
2022-08-21T14:57:40.459Z,99.47
2022-08-21T15:00:12.928Z,104.22
2022-08-21T15:02:41.286Z,100.76
2022-08-21T15:05:12.322Z,98.92
2022-08-21T15:07:43.395Z,97.68
2022-08-21T15:10:17.023Z,97.92
2022-08-21T15:12:45.322Z,100.82
2022-08-21T15:15:17.729Z,103.26
2022-08-21T15:17:48.573Z,100.06
2022-08-21T15:20:20.150Z,101.55
2022-08-21T15:22:50.391Z,103.92
2022-08-21T15:25:20.105Z,97.44
2022-08-21T15:27:49.775Z,101.54
2022-08-21T15:30:18.189Z,99.22
2022-08-21T15:32:46.467Z,100.86
2022-08-21T15:35:14.814Z,99.14
2022-08-21T15:37:43.448Z,101.51
2022-08-21T15:40:14.231Z,102.80
2022-08-21T15:42:47.551Z,103.18
2022-08-21T15:45:15.969Z,104.76
2022-08-21T15:47:46.826Z,103.94
2022-08-21T15:50:15.714Z,104.64
2022-08-21T15:52:44.091Z,105.18
2022-08-21T15:55:13.097Z,105.12
2022-08-21T15:57:57.907Z,105.38
2022-08-21T16:00:30.946Z,105.54
2022-08-21T16:03:02.596Z,104.69
2022-08-21T16:05:34.018Z,105.23
2022-08-21T16:08:02.291Z,104.77
2022-08-21T16:10:34.065Z,104.21
2022-08-21T16:13:09.657Z,105.52
2022-08-21T16:15:38.179Z,104.94
2022-08-21T16:18:06.951Z,103.23
2022-08-21T16:20:35.839Z,102.09
2022-08-21T16:23:06.110Z,100.70
2022-08-21T16:25:40.576Z,100.54
2022-08-21T16:28:15.447Z,102.46
2022-08-21T16:30:45.719Z,102.10
2022-08-21T16:33:22.851Z,99.71
2022-08-21T16:35:51.241Z,99.88
2022-08-21T16:38:19.800Z,99.08
2022-08-21T16:40:51.315Z,100.31
2022-08-21T16:43:25.784Z,100.56
2022-08-21T16:45:55.007Z,101.36
2022-08-21T16:48:24.195Z,102.60
2022-08-21T16:50:52.745Z,103.20
2022-08-21T16:53:23.549Z,103.71
2022-08-21T16:55:57.384Z,103.27
2022-08-21T16:58:32.660Z,103.68
2022-08-21T17:01:06.685Z,103.95
2022-08-21T17:03:39.124Z,104.76
2022-08-21T17:06:11.326Z,104.93
2022-08-21T17:08:44.764Z,104.96
2022-08-21T17:11:36.539Z,105.76
2022-08-21T17:14:13.763Z,105.98
2022-08-21T17:16:46.574Z,106.40
2022-08-21T17:19:15.923Z,107.46
2022-08-21T17:21:44.441Z,106.56
2022-08-21T17:24:15.545Z,106.43
2022-08-21T17:26:47.364Z,106.82
2022-08-21T17:29:17.316Z,106.79
2022-08-21T17:31:48.042Z,107.29
2022-08-21T17:34:16.921Z,107.28
2022-08-21T17:36:45.210Z,108.11
2022-08-21T17:39:22.123Z,107.46
2022-08-21T17:41:52.915Z,106.71
2022-08-21T17:44:28.084Z,107.85
2022-08-21T17:46:56.512Z,107.14
2022-08-21T17:49:25.460Z,106.76
2022-08-21T17:51:57.088Z,107.44
2022-08-21T17:54:25.975Z,107.14
2022-08-21T17:57:01.132Z,107.26
2022-08-21T17:59:33.829Z,105.99
2022-08-21T18:02:02.762Z,107.21
2022-08-21T18:04:33.629Z,107.30
2022-08-21T18:07:01.917Z,106.79
2022-08-21T18:09:30.325Z,106.96
2022-08-21T18:12:02.192Z,107.24
2022-08-21T18:14:37.997Z,106.59
2022-08-21T18:17:10.004Z,107.44
2022-08-21T18:19:38.754Z,106.87
2022-08-21T18:22:18.789Z,105.11
2022-08-21T18:24:47.159Z,106.81
2022-08-21T18:27:16.221Z,106.18
2022-08-21T18:29:47.445Z,105.43
2022-08-21T18:32:31.284Z,103.02
2022-08-21T18:35:03.894Z,106.59
2022-08-21T18:37:35.035Z,105.94
2022-08-21T18:40:03.602Z,105.43
2022-08-21T18:42:36.500Z,105.85
2022-08-21T18:45:11.855Z,102.86
2022-08-21T18:47:44.125Z,104.78
2022-08-21T18:50:14.922Z,104.48
2022-08-21T18:52:53.516Z,104.07
2022-08-21T18:55:24.556Z,105.31
2022-08-21T18:57:53.752Z,105.72
2022-08-21T19:00:26.354Z,105.91
2022-08-21T19:02:54.657Z,105.37
2022-08-21T19:05:24.180Z,105.53
2022-08-21T19:07:55.090Z,104.73
2022-08-21T19:10:28.361Z,105.74
2022-08-21T19:13:18.904Z,104.30
2022-08-21T19:15:53.496Z,105.41
2022-08-21T19:18:29.701Z,105.02
2022-08-21T19:20:58.432Z,105.72
2022-08-21T19:23:30.537Z,102.77
2022-08-21T19:26:02.396Z,104.63
2022-08-21T19:28:36.377Z,105.40
2022-08-21T19:31:11.851Z,103.63
2022-08-21T19:33:44.258Z,105.72
2022-08-21T19:36:14.253Z,105.00
2022-08-21T19:38:45.472Z,105.13
2022-08-21T19:41:19.576Z,105.61
2022-08-21T19:43:50.909Z,104.37
2022-08-21T19:46:25.347Z,104.54
2022-08-21T19:48:55.876Z,105.06
2022-08-21T19:51:24.698Z,105.11
2022-08-21T19:53:56.984Z,104.26
2022-08-21T19:56:30.115Z,103.78
2022-08-21T19:58:58.909Z,105.22
2022-08-21T20:07:16.724Z,102.40
2022-08-21T20:09:54.670Z,104.69
2022-08-21T20:12:25.821Z,103.09
2022-08-21T20:14:57.781Z,101.82
2022-08-21T20:17:30.804Z,99.83
2022-08-21T20:20:04.907Z,103.32
2022-08-21T20:22:35.253Z,103.99
2022-08-21T20:25:06.023Z,102.38
2022-08-21T20:27:40.381Z,104.12
2022-08-21T20:30:10.886Z,102.65
2022-08-21T20:32:45.657Z,103.62
2022-08-21T20:35:16.637Z,104.08
2022-08-21T20:37:45.240Z,102.41
2022-08-21T20:43:17.076Z,103.31
2022-08-21T20:45:45.599Z,102.96
2022-08-21T20:48:23.509Z,103.02
2022-08-21T20:50:56.893Z,102.41
2022-08-21T20:53:42.880Z,102.36
2022-08-21T20:56:19.066Z,101.72
2022-08-21T20:58:58.735Z,100.06
2022-08-21T21:01:32.757Z,101.19
2022-08-21T21:04:10.265Z,101.00
2022-08-21T21:09:43.063Z,102.54
2022-08-21T21:12:27.864Z,101.65
2022-08-21T21:15:00.259Z,102.63
2022-08-21T21:17:34.805Z,102.94
2022-08-21T21:20:17.742Z,104.12
2022-08-21T21:22:52.313Z,103.53
2022-08-21T21:28:27.345Z,103.08
2022-08-21T21:31:03.868Z,103.65
2022-08-21T21:33:35.346Z,103.70
2022-08-21T21:39:13.357Z,103.09
2022-08-21T21:41:54.250Z,103.76
2022-08-21T21:44:36.480Z,102.78
2022-08-21T21:47:15.630Z,104.11
2022-08-21T21:49:59.924Z,102.40
2022-08-21T21:52:54.611Z,102.76
2022-08-21T21:55:39.783Z,100.79
2022-08-21T21:58:39.677Z,101.61
2022-08-21T22:01:14.357Z,101.54
2022-08-21T22:03:52.494Z,101.79
2022-08-21T22:06:30.615Z,103.10
2022-08-21T22:09:09.346Z,103.70
2022-08-21T22:11:55.480Z,101.93
2022-08-21T22:14:28.741Z,102.98
2022-08-21T22:17:05.488Z,101.28
2022-08-21T22:19:45.243Z,102.12
2022-08-21T22:22:17.475Z,102.46
2022-08-21T22:24:51.732Z,101.93
2022-08-21T22:27:29.779Z,102.35
2022-08-21T22:30:04.782Z,101.89
2022-08-21T22:32:38.608Z,101.90
2022-08-21T22:35:15.541Z,102.47
2022-08-21T22:37:50.805Z,100.71
2022-08-21T22:40:27.424Z,99.75
2022-08-21T22:43:02.778Z,101.33
2022-08-21T22:45:32.720Z,102.21
2022-08-21T22:48:14.572Z,102.06
2022-08-21T22:51:00.474Z,101.88
2022-08-21T22:53:33.302Z,103.28
2022-08-21T22:56:06.085Z,102.06
2022-08-21T22:58:37.956Z,100.45
2022-08-21T23:01:29.537Z,98.28
2022-08-21T23:04:02.431Z,97.29
2022-08-21T23:06:38.172Z,95.38
2022-08-21T23:09:23.205Z,94.90
2022-08-21T23:11:55.586Z,93.43
2022-08-21T23:14:26.412Z,93.82
2022-08-21T23:17:03.100Z,94.32
2022-08-21T23:19:49.316Z,94.04
2022-08-21T23:22:36.068Z,95.49
2022-08-21T23:25:27.050Z,97.50
2022-08-21T23:28:06.208Z,97.65
2022-08-21T23:30:49.846Z,99.67
2022-08-21T23:33:38.673Z,100.90
2022-08-21T23:36:41.186Z,100.31
2022-08-21T23:39:25.486Z,100.01
2022-08-21T23:41:59.536Z,100.50
2022-08-21T23:44:47.803Z,101.47
2022-08-21T23:47:34.604Z,98.54
2022-08-21T23:50:14.012Z,101.29
2022-08-21T23:52:58.162Z,102.02
2022-08-21T23:55:43.819Z,102.41
2022-08-21T23:58:27.907Z,103.86
